createdAt,value
2019-04-10T00:00:44.367Z,10.05
2019-04-10T00:03:27.942Z,9.87
2019-04-10T00:05:54.202Z,9.87
2019-04-10T00:08:28.867Z,9.83
2019-04-10T00:11:02.764Z,9.76
2019-04-10T00:13:42.789Z,9.73
2019-04-10T00:16:16.032Z,9.67
2019-04-10T00:18:48.955Z,9.56
2019-04-10T00:21:25.206Z,9.49
2019-04-10T00:24:00.449Z,9.46
2019-04-10T00:26:34.386Z,9.43
2019-04-10T00:29:10.769Z,9.36
2019-04-10T00:31:43.199Z,9.34
2019-04-10T00:34:15.924Z,9.27
2019-04-10T00:36:49.160Z,9.13
2019-04-10T00:39:28.769Z,9.03
2019-04-10T00:42:07.156Z,8.98
2019-04-10T00:44:39.964Z,8.92
2019-04-10T00:47:17.034Z,8.90
2019-04-10T00:49:54.038Z,8.88
2019-04-10T00:52:32.407Z,8.81
2019-04-10T00:55:04.297Z,8.79
2019-04-10T00:57:42.645Z,8.76
2019-04-10T01:00:23.559Z,8.76
2019-04-10T01:02:56.915Z,8.75
2019-04-10T01:05:31.171Z,8.74
2019-04-10T01:08:06.731Z,8.73
2019-04-10T01:10:40.289Z,8.70
2019-04-10T01:13:20.885Z,8.64
2019-04-10T01:15:55.166Z,8.60
2019-04-10T01:18:36.063Z,8.57
2019-04-10T01:21:14.483Z,8.57
2019-04-10T01:23:47.295Z,8.63
2019-04-10T01:26:23.387Z,8.63
2019-04-10T01:28:58.546Z,8.64
2019-04-10T01:31:33.637Z,8.66
2019-04-10T01:34:11.484Z,8.69
2019-04-10T01:36:48.845Z,8.70
2019-04-10T01:39:28.970Z,8.66
2019-04-10T01:42:09.270Z,8.69
2019-04-10T01:44:51.139Z,8.73
2019-04-10T01:47:28.910Z,8.81
2019-04-10T01:50:04.393Z,8.87
2019-04-10T01:52:37.429Z,8.87
2019-04-10T01:55:20.125Z,8.84
2019-04-10T01:57:46.509Z,8.83
2019-04-10T02:00:21.772Z,8.83
2019-04-10T02:02:55.931Z,8.83
2019-04-10T02:05:30.769Z,8.79
2019-04-10T02:08:09.000Z,8.77
2019-04-10T02:10:42.550Z,8.71
2019-04-10T02:13:17.134Z,8.70
2019-04-10T02:15:56.732Z,8.73
2019-04-10T02:18:30.507Z,8.76
2019-04-10T02:21:04.553Z,8.78
2019-04-10T02:23:38.542Z,8.73
2019-04-10T02:26:11.558Z,8.71
2019-04-10T02:28:44.698Z,8.68
2019-04-10T02:31:22.007Z,8.61
2019-04-10T02:33:58.041Z,8.56
2019-04-10T02:36:31.881Z,8.53
2019-04-10T02:39:19.057Z,8.46
2019-04-10T02:41:43.949Z,8.43
2019-04-10T02:44:16.504Z,8.38
2019-04-10T02:46:50.201Z,8.34
2019-04-10T02:49:22.745Z,8.30
2019-04-10T02:51:56.924Z,8.24
2019-04-10T02:54:29.106Z,8.18
2019-04-10T02:57:03.435Z,8.11
2019-04-10T02:59:39.721Z,8.10
2019-04-10T03:02:14.015Z,8.07
2019-04-10T03:04:49.111Z,8.03
2019-04-10T03:07:22.002Z,7.98
2019-04-10T03:10:10.267Z,7.95
2019-04-10T03:12:34.009Z,7.93
2019-04-10T03:15:08.611Z,7.88
2019-04-10T03:17:42.475Z,7.84
2019-04-10T03:20:16.157Z,7.81
2019-04-10T03:22:49.277Z,7.79
2019-04-10T03:25:25.321Z,7.75
2019-04-10T03:27:58.858Z,7.72
2019-04-10T03:30:32.573Z,7.69
2019-04-10T03:33:19.090Z,7.65
2019-04-10T03:35:51.404Z,7.63
2019-04-10T03:38:29.965Z,7.59
2019-04-10T03:41:03.986Z,7.54
2019-04-10T03:43:39.467Z,7.50
2019-04-10T03:46:14.564Z,7.48
2019-04-10T03:48:49.427Z,7.48
2019-04-10T03:51:24.848Z,7.48
2019-04-10T03:53:59.062Z,7.48
2019-04-10T03:56:33.972Z,7.49
2019-04-10T03:59:12.359Z,7.50
2019-04-10T04:01:44.043Z,7.49
2019-04-10T04:04:17.521Z,7.53
2019-04-10T04:06:50.244Z,7.53
2019-04-10T04:09:21.991Z,7.46
2019-04-10T04:11:55.844Z,7.42
2019-04-10T04:14:30.508Z,7.38
2019-04-10T04:17:06.018Z,7.37
2019-04-10T04:19:38.067Z,7.36
2019-04-10T04:22:11.280Z,7.33
2019-04-10T04:24:46.119Z,7.33
2019-04-10T04:27:20.121Z,7.31
2019-04-10T04:29:53.104Z,7.32
2019-04-10T04:32:24.683Z,7.33
2019-04-10T04:35:00.631Z,7.31
2019-04-10T04:37:35.776Z,7.27
2019-04-10T04:40:09.036Z,7.26
2019-04-10T04:42:43.165Z,7.25
2019-04-10T04:45:17.366Z,7.28
2019-04-10T04:47:50.399Z,7.31
2019-04-10T04:50:24.618Z,7.35
2019-04-10T04:52:59.022Z,7.39
2019-04-10T04:55:33.864Z,7.44
2019-04-10T04:58:08.034Z,7.47
2019-04-10T05:00:42.443Z,7.55
2019-04-10T05:03:14.508Z,7.61
2019-04-10T05:05:46.404Z,7.68
2019-04-10T05:08:21.815Z,7.70
2019-04-10T05:10:56.074Z,7.74
2019-04-10T05:13:28.468Z,7.75
2019-04-10T05:16:03.927Z,7.83
2019-04-10T05:18:37.288Z,7.81
2019-04-10T05:21:10.656Z,7.94
2019-04-10T05:23:47.012Z,8.05
2019-04-10T05:26:19.285Z,8.13
2019-04-10T05:29:00.546Z,8.23
2019-04-10T05:31:37.402Z,8.36
2019-04-10T05:34:15.767Z,8.45
2019-04-10T05:36:51.239Z,8.47
2019-04-10T05:39:25.267Z,8.48
2019-04-10T05:42:02.402Z,8.50
2019-04-10T05:44:40.206Z,8.56
2019-04-10T05:47:13.688Z,8.62
2019-04-10T05:49:55.548Z,8.24
2019-04-10T05:52:41.347Z,8.74
2019-04-10T05:55:30.957Z,8.84
2019-04-10T05:58:15.440Z,8.84
2019-04-10T06:00:54.123Z,8.93
2019-04-10T06:03:30.328Z,8.92
2019-04-10T06:06:17.184Z,8.94
2019-04-10T06:08:58.756Z,8.98
2019-04-10T06:11:35.065Z,9.18
2019-04-10T06:14:10.066Z,9.23
2019-04-10T06:16:48.957Z,9.26
2019-04-10T06:19:26.849Z,9.13
2019-04-10T06:22:01.001Z,9.24
2019-04-10T06:24:36.891Z,9.22
2019-04-10T06:27:17.024Z,9.33
2019-04-10T06:29:59.429Z,9.27
2019-04-10T06:32:37.729Z,9.21
2019-04-10T06:35:11.282Z,9.34
2019-04-10T06:37:48.634Z,9.38
2019-04-10T06:40:28.720Z,9.44
2019-04-10T06:43:04.427Z,9.46
2019-04-10T06:45:42.200Z,9.63
2019-04-10T06:48:19.253Z,9.63
2019-04-10T06:50:58.192Z,9.70
2019-04-10T06:53:33.253Z,9.76
2019-04-10T06:56:09.908Z,9.88
2019-04-10T06:58:45.844Z,9.93
2019-04-10T07:01:24.500Z,10.05
2019-04-10T07:04:06.903Z,10.03
2019-04-10T07:06:50.531Z,10.13
2019-04-10T07:09:27.986Z,10.26
2019-04-10T07:12:04.740Z,10.31
2019-04-10T07:14:44.013Z,10.30
2019-04-10T07:17:14.490Z,10.33
2019-04-10T07:19:47.304Z,10.45
2019-04-10T07:22:21.369Z,10.60
2019-04-10T07:24:56.747Z,10.59
2019-04-10T07:27:33.523Z,10.50
2019-04-10T07:30:14.439Z,10.42
2019-04-10T07:33:09.927Z,10.49
2019-04-10T07:35:56.534Z,10.76
2019-04-10T07:38:39.355Z,10.41
2019-04-10T07:41:25.942Z,10.43
2019-04-10T07:44:16.713Z,10.72
2019-04-10T07:46:52.991Z,10.68
2019-04-10T07:49:31.806Z,10.70
2019-04-10T07:52:09.486Z,10.67
2019-04-10T07:54:44.986Z,10.69
2019-04-10T07:57:32.803Z,10.74
2019-04-10T08:00:07.247Z,10.81
2019-04-10T08:02:40.973Z,10.90
2019-04-10T08:05:18.840Z,10.79
2019-04-10T08:07:56.450Z,10.79
2019-04-10T08:10:30.686Z,10.63
2019-04-10T08:13:04.545Z,10.63
2019-04-10T08:15:38.094Z,11.00
2019-04-10T08:18:12.272Z,11.22
2019-04-10T08:20:46.673Z,11.30
2019-04-10T08:23:21.844Z,11.47
2019-04-10T08:25:55.958Z,11.58
2019-04-10T08:28:30.707Z,11.67
2019-04-10T08:31:04.313Z,11.75
2019-04-10T08:33:38.822Z,11.77
2019-04-10T08:36:10.998Z,11.91
2019-04-10T08:38:43.976Z,12.06
2019-04-10T08:41:17.202Z,12.09
2019-04-10T08:43:50.353Z,12.01
2019-04-10T08:46:21.920Z,11.48
2019-04-10T08:48:56.629Z,11.70
2019-04-10T08:51:31.401Z,11.98
2019-04-10T08:54:11.999Z,12.09
2019-04-10T08:56:44.920Z,12.08
2019-04-10T08:59:17.303Z,12.33
2019-04-10T09:01:50.412Z,12.11
2019-04-10T09:04:26.783Z,12.11
2019-04-10T09:07:04.264Z,12.25
2019-04-10T09:09:38.241Z,12.13
2019-04-10T09:12:13.607Z,12.29
2019-04-10T09:14:59.262Z,12.39
2019-04-10T09:17:33.428Z,12.62
2019-04-10T09:20:06.865Z,12.63
2019-04-10T09:23:06.679Z,12.61
2019-04-10T09:25:16.092Z,12.80
2019-04-10T09:27:50.419Z,12.72
2019-04-10T09:30:24.785Z,12.71
2019-04-10T09:32:57.043Z,12.79
2019-04-10T09:35:29.513Z,12.86
2019-04-10T09:38:02.249Z,12.66
2019-04-10T09:40:36.247Z,12.82
2019-04-10T09:43:09.343Z,12.98
2019-04-10T09:45:42.232Z,12.46
2019-04-10T09:48:19.007Z,12.74
2019-04-10T09:50:53.269Z,12.80
2019-04-10T09:53:30.371Z,12.81
2019-04-10T09:56:03.212Z,12.61
2019-04-10T09:58:36.392Z,12.55
2019-04-10T10:01:13.721Z,12.69
2019-04-10T10:03:48.771Z,12.89
2019-04-10T10:06:29.804Z,12.99
2019-04-10T10:08:57.178Z,12.95
2019-04-10T10:11:31.495Z,12.96
2019-04-10T10:14:04.297Z,12.92
2019-04-10T10:16:38.625Z,12.92
2019-04-10T10:19:12.005Z,12.99
2019-04-10T10:21:50.555Z,12.94
2019-04-10T10:24:24.571Z,13.07
2019-04-10T10:26:56.304Z,13.13
2019-04-10T10:29:30.128Z,13.18
2019-04-10T10:32:02.614Z,13.32
2019-04-10T10:34:38.648Z,13.41
2019-04-10T10:37:10.966Z,13.45
2019-04-10T10:39:45.308Z,13.31
2019-04-10T10:42:19.468Z,13.24
2019-04-10T10:44:58.483Z,13.25
2019-04-10T10:47:32.628Z,13.18
2019-04-10T10:50:06.636Z,13.16
2019-04-10T10:52:39.800Z,13.20
2019-04-10T10:55:13.684Z,13.18
2019-04-10T10:58:00.359Z,13.12
2019-04-10T11:00:32.162Z,12.98
2019-04-10T11:03:06.434Z,13.06
2019-04-10T11:05:42.272Z,13.02
2019-04-10T11:08:20.838Z,13.20
2019-04-10T11:10:57.193Z,12.90
2019-04-10T11:13:28.863Z,12.83
2019-04-10T11:16:04.273Z,12.92
2019-04-10T11:18:38.108Z,13.06
2019-04-10T11:21:16.650Z,13.13
2019-04-10T11:23:53.343Z,12.94
2019-04-10T11:26:30.252Z,12.94
2019-04-10T11:29:05.576Z,12.82
2019-04-10T11:31:39.813Z,13.01
2019-04-10T11:34:14.225Z,12.96
2019-04-10T11:36:50.960Z,13.13
2019-04-10T11:39:26.338Z,13.19
2019-04-10T11:41:57.826Z,13.27
2019-04-10T11:44:45.675Z,13.20
2019-04-10T11:47:17.407Z,13.01
2019-04-10T11:49:49.977Z,13.12
2019-04-10T11:52:33.763Z,13.19
2019-04-10T11:55:08.777Z,13.16
2019-04-10T11:57:42.139Z,13.11
2019-04-10T12:00:17.505Z,12.97
2019-04-10T12:02:52.885Z,12.81
2019-04-10T12:05:28.796Z,12.81
2019-04-10T12:08:28.400Z,12.88
2019-04-10T12:13:12.339Z,12.79
2019-04-10T12:15:45.106Z,12.74
2019-04-10T12:18:19.404Z,12.73
2019-04-10T12:20:51.529Z,12.61
2019-04-10T12:23:27.143Z,12.53
2019-04-10T12:25:59.134Z,12.54
2019-04-10T12:28:32.369Z,12.48
2019-04-10T12:31:06.017Z,12.42
2019-04-10T12:33:52.793Z,12.35
2019-04-10T12:36:31.014Z,12.15
2019-04-10T12:39:16.330Z,12.12
2019-04-10T12:41:52.060Z,12.05
2019-04-10T12:44:26.005Z,12.08
2019-04-10T12:46:59.542Z,12.02
2019-04-10T12:49:33.972Z,11.93
2019-04-10T12:52:08.108Z,11.88
2019-04-10T12:54:40.546Z,11.91
2019-04-10T12:57:13.169Z,11.77
2019-04-10T12:59:47.822Z,11.72
2019-04-10T13:02:20.589Z,11.59
2019-04-10T13:04:54.429Z,11.59
2019-04-10T13:07:26.172Z,11.61
2019-04-10T13:09:59.190Z,11.60
2019-04-10T13:12:33.879Z,11.64
2019-04-10T13:15:19.315Z,11.61
2019-04-10T13:17:51.487Z,11.61
2019-04-10T13:20:26.007Z,11.59
2019-04-10T13:23:04.947Z,11.57
2019-04-10T13:25:54.937Z,11.58
2019-04-10T13:28:17.799Z,11.61
2019-04-10T13:30:53.681Z,11.60
2019-04-10T13:33:25.401Z,11.51
2019-04-10T13:36:11.756Z,11.47
2019-04-10T13:38:50.960Z,11.42
2019-04-10T13:41:28.239Z,11.29
2019-04-10T13:44:02.569Z,11.27
2019-04-10T13:46:37.245Z,11.24
2019-04-10T13:49:22.555Z,11.23
2019-04-10T13:51:56.246Z,11.21
2019-04-10T13:54:33.043Z,11.18
2019-04-10T13:57:05.797Z,11.15
2019-04-10T13:59:41.465Z,11.05
2019-04-10T14:02:21.533Z,11.01
2019-04-10T14:05:00.264Z,10.98
2019-04-10T14:07:33.928Z,10.92
2019-04-10T14:10:12.560Z,10.87
2019-04-10T14:12:44.675Z,10.87
2019-04-10T14:15:18.553Z,10.84
2019-04-10T14:17:50.739Z,10.79
2019-04-10T14:20:27.031Z,10.79
2019-04-10T14:23:12.916Z,10.78
2019-04-10T14:26:04.598Z,10.77
2019-04-10T14:28:38.755Z,10.78
2019-04-10T14:31:23.209Z,10.76
2019-04-10T14:33:56.598Z,10.80
2019-04-10T14:36:31.883Z,10.77
2019-04-10T14:39:17.857Z,10.78
2019-04-10T14:41:48.218Z,10.81
2019-04-10T14:44:20.810Z,10.82
2019-04-10T14:46:54.081Z,10.82
2019-04-10T14:49:27.267Z,10.87
2019-04-10T14:52:00.920Z,10.92
2019-04-10T14:54:32.856Z,10.88
2019-04-10T14:57:06.546Z,10.88
2019-04-10T14:59:40.630Z,10.87
2019-04-10T15:02:14.823Z,10.87
2019-04-10T15:04:49.110Z,10.82
2019-04-10T15:07:22.709Z,10.81
2019-04-10T15:09:56.097Z,10.84
2019-04-10T15:12:30.244Z,10.85
2019-04-10T15:15:03.862Z,10.84
2019-04-10T15:17:36.197Z,10.84
2019-04-10T15:20:09.070Z,10.84
2019-04-10T15:22:42.182Z,10.86
2019-04-10T15:25:15.699Z,10.86
2019-04-10T15:27:53.661Z,10.88
2019-04-10T15:30:27.032Z,10.90
2019-04-10T15:33:00.422Z,10.89
2019-04-10T15:35:32.942Z,10.92
2019-04-10T15:38:06.296Z,10.93
2019-04-10T15:40:42.439Z,10.91
2019-04-10T15:43:18.818Z,10.91
2019-04-10T15:45:51.116Z,10.88
2019-04-10T15:48:25.133Z,10.87
2019-04-10T15:50:56.686Z,10.86
2019-04-10T15:53:32.953Z,10.88
2019-04-10T15:56:08.153Z,10.88
2019-04-10T15:58:42.174Z,10.88
2019-04-10T16:01:18.640Z,10.86
2019-04-10T16:03:58.987Z,10.86
2019-04-10T16:06:33.473Z,10.83
2019-04-10T16:09:09.230Z,10.82
2019-04-10T16:12:20.791Z,10.77
2019-04-10T16:14:59.058Z,10.75
2019-04-10T16:17:52.560Z,10.70
2019-04-10T16:20:32.092Z,10.67
2019-04-10T16:23:12.257Z,10.64
2019-04-10T16:25:54.495Z,10.55
2019-04-10T16:28:30.056Z,10.53
2019-04-10T16:31:05.512Z,10.48
2019-04-10T16:33:44.599Z,10.41
2019-04-10T16:36:19.303Z,10.36
2019-04-10T16:38:53.326Z,10.34
2019-04-10T16:42:00.124Z,10.28
2019-04-10T16:44:55.667Z,10.27
2019-04-10T16:47:50.854Z,10.20
2019-04-10T16:50:46.472Z,10.06
2019-04-10T16:53:41.332Z,10.09
2019-04-10T16:56:36.017Z,10.07
2019-04-10T16:59:29.919Z,10.04
2019-04-10T17:02:56.648Z,10.01
2019-04-10T17:05:18.529Z,9.96
2019-04-10T17:07:52.064Z,9.94
2019-04-10T17:10:34.262Z,9.91
2019-04-10T17:13:16.247Z,9.88
2019-04-10T17:15:55.586Z,9.84
2019-04-10T17:18:28.912Z,9.80
2019-04-10T17:21:08.994Z,9.77
2019-04-10T17:23:45.099Z,9.76
2019-04-10T17:26:18.976Z,9.73
2019-04-10T17:28:53.468Z,9.71
2019-04-10T17:31:25.118Z,9.69
2019-04-10T17:33:57.024Z,9.64
2019-04-10T17:36:32.693Z,9.67
2019-04-10T17:39:19.307Z,9.71
2019-04-10T17:41:57.907Z,9.73
2019-04-10T17:44:38.122Z,9.71
2019-04-10T17:47:16.593Z,9.69
2019-04-10T17:49:53.875Z,8.58
2019-04-10T17:52:27.110Z,9.62
2019-04-10T17:55:03.197Z,9.63
2019-04-10T17:57:43.360Z,9.62
2019-04-10T18:00:45.314Z,9.64
2019-04-10T18:03:46.281Z,9.65
2019-04-10T18:06:31.151Z,9.68
2019-04-10T18:09:29.005Z,9.69
2019-04-10T18:12:26.210Z,9.70
2019-04-10T18:15:20.080Z,9.64
2019-04-10T18:18:13.721Z,9.64
2019-04-10T18:20:46.520Z,9.62
2019-04-10T18:23:25.203Z,9.62
2019-04-10T18:26:06.846Z,9.59
2019-04-10T18:28:40.079Z,9.57
2019-04-10T18:31:14.283Z,9.58
2019-04-10T18:33:51.102Z,9.61
2019-04-10T18:36:32.185Z,9.58
2019-04-10T18:39:14.060Z,9.60
2019-04-10T18:41:49.114Z,9.61
2019-04-10T18:44:22.767Z,9.56
2019-04-10T18:47:00.680Z,9.56
2019-04-10T18:49:35.831Z,9.52
2019-04-10T18:52:13.253Z,9.57
2019-04-10T18:54:46.035Z,9.55
2019-04-10T18:57:20.000Z,9.52
2019-04-10T19:00:15.241Z,9.46
2019-04-10T19:03:05.925Z,9.46
2019-04-10T19:05:43.599Z,9.49
2019-04-10T19:08:16.381Z,9.52
2019-04-10T19:11:19.165Z,9.53
2019-04-10T19:14:00.760Z,9.48
2019-04-10T19:16:55.165Z,9.48
2019-04-10T19:19:55.230Z,9.48
2019-04-10T19:22:52.778Z,9.47
2019-04-10T19:25:45.665Z,9.49
2019-04-10T19:28:46.565Z,9.48
2019-04-10T19:31:43.622Z,9.49
2019-04-10T19:34:39.305Z,9.51
2019-04-10T19:37:30.368Z,9.50
2019-04-10T19:40:23.560Z,9.46
2019-04-10T19:43:16.346Z,9.45
2019-04-10T19:45:48.244Z,9.44
2019-04-10T19:48:23.440Z,9.43
2019-04-10T19:51:02.981Z,9.39
2019-04-10T19:53:39.665Z,9.33
2019-04-10T19:56:12.704Z,9.27
2019-04-10T19:58:46.091Z,9.24
2019-04-10T20:01:19.111Z,9.23
2019-04-10T20:03:52.723Z,9.23
2019-04-10T20:06:28.434Z,9.20
2019-04-10T20:09:01.544Z,9.15
2019-04-10T20:11:42.133Z,9.12
2019-04-10T20:14:14.211Z,9.09
2019-04-10T20:16:49.397Z,9.07
2019-04-10T20:19:22.406Z,9.09
2019-04-10T20:21:56.436Z,9.09
2019-04-10T20:24:30.037Z,9.10
2019-04-10T20:27:03.632Z,9.11
2019-04-10T20:29:37.679Z,9.12
2019-04-10T20:32:12.389Z,9.06
2019-04-10T20:34:45.818Z,9.03
2019-04-10T20:37:21.223Z,9.04
2019-04-10T20:39:58.196Z,9.03
2019-04-10T20:42:32.334Z,9.05
2019-04-10T20:45:05.114Z,9.06
2019-04-10T20:47:37.693Z,9.06
2019-04-10T20:50:10.258Z,9.07
2019-04-10T20:52:41.762Z,9.10
2019-04-10T20:55:13.986Z,9.14
2019-04-10T20:57:48.207Z,9.16
2019-04-10T21:00:38.647Z,9.17
2019-04-10T21:03:13.545Z,9.18
2019-04-10T21:05:51.002Z,9.17
2019-04-10T21:08:29.739Z,9.19
2019-04-10T21:11:11.770Z,9.19
2019-04-10T21:13:48.990Z,9.14
2019-04-10T21:16:21.102Z,9.11
2019-04-10T21:19:00.609Z,9.13
2019-04-10T21:21:47.487Z,9.09
2019-04-10T21:24:27.355Z,9.10
2019-04-10T21:27:01.337Z,9.11
2019-04-10T21:30:03.791Z,9.08
2019-04-10T21:33:06.269Z,9.07
2019-04-10T21:35:56.043Z,9.05
2019-04-10T21:38:34.664Z,8.99
2019-04-10T21:41:16.758Z,8.98
2019-04-10T21:43:52.524Z,9.00
2019-04-10T21:46:34.640Z,8.97
2019-04-10T21:56:18.023Z,8.88
2019-04-10T21:59:16.718Z,8.84
2019-04-10T22:02:19.628Z,8.84
2019-04-10T22:05:16.818Z,8.80
2019-04-10T22:08:21.368Z,8.78
2019-04-10T22:11:19.681Z,8.73
2019-04-10T22:14:22.668Z,8.72
2019-04-10T22:17:24.686Z,8.71
2019-04-10T22:20:31.834Z,8.75
2019-04-10T22:23:24.487Z,8.73
2019-04-10T22:26:19.959Z,8.61
2019-04-10T22:29:10.667Z,8.55
2019-04-10T22:32:06.411Z,8.46
2019-04-10T22:34:50.586Z,8.45
2019-04-10T22:37:42.590Z,8.40
2019-04-10T22:40:33.395Z,8.40
2019-04-10T22:43:09.599Z,8.38
2019-04-10T22:46:01.046Z,8.39
2019-04-10T22:48:53.428Z,8.42
2019-04-10T22:51:46.043Z,8.43
2019-04-10T22:54:38.844Z,8.42
2019-04-10T22:57:25.291Z,8.43
2019-04-10T23:00:05.448Z,8.43
2019-04-10T23:02:50.785Z,8.41
2019-04-10T23:05:27.214Z,8.37
2019-04-10T23:08:13.476Z,8.36
2019-04-10T23:11:03.569Z,8.38
2019-04-10T23:13:50.075Z,8.38
2019-04-10T23:16:24.143Z,8.38
2019-04-10T23:19:12.026Z,8.40
2019-04-10T23:21:57.061Z,8.39
2019-04-10T23:24:40.386Z,8.33
2019-04-10T23:27:51.967Z,8.30
2019-04-10T23:30:41.344Z,7.45
2019-04-10T23:33:21.313Z,8.22
2019-04-10T23:35:59.977Z,8.16
2019-04-10T23:38:41.688Z,8.16
2019-04-10T23:41:33.783Z,8.16
2019-04-10T23:44:16.472Z,8.16
2019-04-10T23:46:58.326Z,8.15
2019-04-10T23:50:12.165Z,8.12
2019-04-10T23:53:02.485Z,8.08
2019-04-10T23:56:06.249Z,8.06
2019-04-10T23:59:05.299Z,8.03
